createdAt,value
2022-12-03T00:04:32.477Z,19.57
2022-12-03T00:14:33.977Z,21.83
2022-12-03T00:24:35.505Z,16.90
2022-12-03T00:34:37.055Z,17.90
2022-12-03T00:44:38.548Z,16.05
2022-12-03T00:54:40.043Z,14.57
2022-12-03T01:04:41.698Z,13.83
2022-12-03T01:14:43.289Z,13.47
2022-12-03T01:24:44.892Z,13.40
2022-12-03T01:34:48.522Z,14.20
2022-12-03T01:44:52.854Z,14.47
2022-12-03T01:54:56.878Z,16.70
2022-12-03T02:04:59.711Z,17.33
2022-12-03T02:15:02.165Z,18.33
2022-12-03T02:25:13.171Z,19.00
2022-12-03T02:35:18.046Z,18.27
2022-12-03T02:45:28.450Z,18.90
2022-12-03T02:55:36.551Z,19.63
2022-12-03T03:05:40.182Z,18.87
2022-12-03T03:15:42.521Z,16.55
2022-12-03T03:25:47.401Z,21.37
2022-12-03T03:35:49.564Z,17.37
2022-12-03T03:45:52.448Z,19.35
2022-12-03T03:55:54.055Z,19.47
2022-12-03T04:05:55.806Z,19.07
2022-12-03T04:15:57.350Z,20.48
2022-12-03T04:25:58.844Z,19.10
2022-12-03T04:36:00.457Z,18.00
2022-12-03T04:46:02.214Z,18.50
2022-12-03T04:56:03.829Z,17.73
2022-12-03T05:06:05.510Z,19.17
2022-12-03T05:16:07.381Z,22.30
2022-12-03T05:26:08.896Z,24.40
2022-12-03T05:36:10.488Z,21.45
2022-12-03T05:46:12.054Z,24.83
2022-12-03T05:56:13.646Z,23.43
2022-12-03T06:06:15.198Z,22.27
2022-12-03T06:16:16.784Z,24.43
2022-12-03T06:26:18.432Z,24.15
2022-12-03T06:36:23.050Z,22.20
2022-12-03T06:46:25.064Z,24.53
2022-12-03T06:56:32.801Z,25.23
2022-12-03T07:06:36.697Z,25.53
2022-12-03T07:16:39.171Z,24.77
2022-12-03T07:26:40.804Z,19.83
2022-12-03T07:36:42.327Z,21.73
2022-12-03T07:46:43.918Z,24.88
2022-12-03T07:56:45.489Z,21.57
2022-12-03T08:06:47.577Z,21.20
2022-12-03T08:16:49.269Z,24.25
2022-12-03T08:26:50.916Z,22.07
2022-12-03T08:37:01.415Z,20.80
2022-12-03T08:47:08.928Z,23.57
2022-12-03T08:57:33.428Z,23.03
2022-12-03T09:07:34.996Z,24.10
2022-12-03T09:17:36.619Z,27.27
2022-12-03T09:27:38.141Z,26.03
2022-12-03T09:37:39.663Z,22.83
2022-12-03T09:47:44.778Z,28.10
2022-12-03T09:57:46.447Z,16.70
2022-12-03T10:07:52.208Z,22.57
2022-12-03T10:17:54.869Z,21.87
2022-12-03T10:27:59.732Z,21.13
2022-12-03T10:38:03.918Z,21.00
2022-12-03T10:48:13.072Z,23.40
2022-12-03T10:58:25.842Z,21.98
2022-12-03T11:08:31.199Z,16.97
2022-12-03T11:18:50.788Z,20.20
2022-12-03T11:28:57.160Z,18.67
2022-12-03T11:38:58.771Z,19.57
2022-12-03T11:49:00.361Z,21.75
2022-12-03T11:59:04.459Z,18.47
2022-12-03T12:09:06.009Z,17.77
2022-12-03T12:19:42.379Z,23.67
2022-12-03T12:29:45.876Z,21.30
2022-12-03T12:39:47.858Z,21.65
2022-12-03T12:49:51.886Z,21.60
2022-12-03T12:59:53.889Z,25.07
2022-12-03T13:09:56.016Z,21.27
2022-12-03T13:20:05.436Z,25.63
2022-12-03T13:30:17.049Z,21.33
2022-12-03T13:40:29.072Z,22.40
2022-12-03T13:50:40.942Z,22.97
2022-12-03T14:00:42.501Z,23.60
2022-12-03T14:10:44.283Z,27.00
2022-12-03T14:20:45.801Z,24.97
2022-12-03T14:30:47.332Z,26.02
2022-12-03T14:40:48.883Z,26.83
2022-12-03T14:50:50.385Z,27.00
2022-12-03T15:00:52.023Z,28.15
2022-12-03T15:10:54.107Z,35.93
2022-12-03T15:20:55.614Z,33.27
2022-12-03T15:30:57.299Z,29.60
2022-12-03T15:40:58.846Z,33.53
2022-12-03T15:51:00.324Z,31.65
2022-12-03T16:01:01.921Z,37.80
2022-12-03T16:11:03.524Z,36.60
2022-12-03T16:21:05.080Z,37.30
2022-12-03T16:31:06.659Z,37.77
2022-12-03T16:41:09.446Z,37.20
2022-12-03T16:51:11.332Z,39.10
2022-12-03T17:01:12.940Z,36.03
2022-12-03T17:11:14.561Z,34.27
2022-12-03T17:21:17.025Z,33.37
2022-12-03T17:31:18.645Z,43.65
2022-12-03T17:41:20.263Z,30.80
2022-12-03T17:51:21.805Z,29.60
2022-12-03T18:01:23.409Z,25.20
2022-12-03T18:11:25.293Z,27.77
2022-12-03T18:21:27.455Z,24.70
2022-12-03T18:31:29.011Z,27.73
2022-12-03T18:41:30.646Z,26.20
2022-12-03T18:51:32.174Z,34.65
2022-12-03T19:01:34.461Z,37.50
2022-12-03T19:11:36.296Z,41.17
2022-12-03T19:21:37.788Z,36.27
2022-12-03T19:31:39.402Z,35.43
2022-12-03T19:41:40.977Z,32.50
2022-12-03T19:51:42.486Z,32.33
2022-12-03T20:01:44.091Z,27.90
2022-12-03T20:11:45.728Z,34.57
2022-12-03T20:21:47.313Z,47.83
2022-12-03T20:31:48.899Z,30.55
2022-12-03T20:41:50.498Z,30.27
2022-12-03T20:51:52.014Z,32.13
2022-12-03T21:01:53.783Z,29.03
2022-12-03T21:11:55.361Z,28.67
2022-12-03T21:21:57.353Z,34.75
2022-12-03T21:31:58.913Z,30.33
2022-12-03T21:42:22.245Z,37.47
2022-12-03T21:52:22.176Z,41.07
2022-12-03T22:02:23.723Z,44.93
2022-12-03T22:12:25.277Z,45.50
2022-12-03T22:22:26.817Z,43.23
2022-12-03T22:32:28.378Z,44.57
2022-12-03T22:42:29.926Z,43.90
2022-12-03T22:52:31.447Z,44.07
2022-12-03T23:02:33.630Z,46.55
2022-12-03T23:12:35.199Z,38.00
2022-12-03T23:22:36.736Z,38.63
2022-12-03T23:32:38.287Z,37.72
2022-12-03T23:42:39.813Z,41.83
2022-12-03T23:52:41.324Z,36.63
